TimePDT,TemperatureF,Dew PointF,Humidity,Sea Level PressureIn,VisibilityMPH,Wind Direction,Wind SpeedMPH,Gust SpeedMPH,PrecipitationIn,Events,Conditions,WindDirDegrees,DateUTC
12:53 AM,51.1,39.9,66,29.86,10.0,WSW,5.8,-,N/A,,Clear,250,2013-09-20 07:53:00
1:53 AM,46.9,39.9,77,29.85,10.0,West,6.9,-,N/A,,Clear,280,2013-09-20 08:53:00
2:53 AM,45.0,39.0,80,29.83,10.0,West,6.9,-,N/A,,Clear,280,2013-09-20 09:53:00
3:53 AM,48.0,39.9,74,29.82,10.0,West,9.2,-,N/A,,Clear,260,2013-09-20 10:53:00
4:53 AM,43.0,37.9,82,29.81,10.0,WNW,8.1,-,N/A,,Clear,290,2013-09-20 11:53:00
5:53 AM,44.1,39.0,82,29.80,10.0,West,8.1,-,N/A,,Clear,260,2013-09-20 12:53:00
6:53 AM,45.0,39.0,80,29.79,10.0,WNW,6.9,-,N/A,,Clear,290,2013-09-20 13:53:00
7:53 AM,48.9,39.9,71,29.79,10.0,West,6.9,-,N/A,,Clear,270,2013-09-20 14:53:00
8:53 AM,57.9,42.1,56,29.78,10.0,West,4.6,-,N/A,,Clear,280,2013-09-20 15:53:00
9:53 AM,64.9,42.1,43,29.74,10.0,Calm,Calm,-,N/A,,Clear,0,2013-09-20 16:53:00
10:53 AM,69.1,43.0,39,29.72,10.0,NW,3.5,-,N/A,,Clear,310,2013-09-20 17:53:00
11:53 AM,71.1,42.1,35,29.69,10.0,SW,3.5,-,N/A,,Clear,230,2013-09-20 18:53:00
12:53 PM,73.9,37.0,26,29.66,10.0,SSW,3.5,-,N/A,,Clear,200,2013-09-20 19:53:00
1:53 PM,75.0,39.9,28,29.63,10.0,South,3.5,-,N/A,,Clear,170,2013-09-20 20:53:00
2:53 PM,75.9,35.1,23,29.61,10.0,Calm,Calm,-,N/A,,Clear,0,2013-09-20 21:53:00
3:53 PM,79.0,36.0,21,29.59,10.0,Calm,Calm,-,N/A,,Clear,0,2013-09-20 22:53:00
4:53 PM,78.1,37.9,24,29.57,10.0,Calm,Calm,-,N/A,,Partly Cloudy,0,2013-09-20 23:53:00
5:53 PM,75.0,41.0,29,29.56,10.0,Calm,Calm,-,N/A,,Partly Cloudy,0,2013-09-21 00:53:00
6:53 PM,68.0,48.0,49,29.56,10.0,SW,3.5,-,N/A,,Scattered Clouds,220,2013-09-21 01:53:00
7:53 PM,66.9,46.9,49,29.59,10.0,SSW,5.8,-,N/A,,Clear,200,2013-09-21 02:53:00
8:53 PM,66.9,45.0,45,29.58,10.0,Calm,Calm,-,N/A,,Clear,0,2013-09-21 03:53:00
9:53 PM,69.1,45.0,42,29.60,10.0,West,8.1,-,N/A,,Clear,280,2013-09-21 04:53:00
10:53 PM,70.0,42.1,36,29.61,10.0,WSW,11.5,17.3,N/A,,Scattered Clouds,250,2013-09-21 05:53:00
11:53 PM,68.0,42.1,39,29.61,10.0,WSW,6.9,-,N/A,,Mostly Cloudy,250,2013-09-21 06:53:00